createdAt,value
2023-05-08T00:00:24.312Z,237.46
2023-05-08T00:01:24.346Z,240.13
2023-05-08T00:02:24.487Z,242.03
2023-05-08T00:03:24.488Z,239.76
2023-05-08T00:04:24.563Z,234.99
2023-05-08T00:05:24.440Z,234.04
2023-05-08T00:06:24.484Z,232.39
2023-05-08T00:07:24.506Z,235.14
2023-05-08T00:08:24.552Z,238.03
2023-05-08T00:09:24.580Z,238.37
2023-05-08T00:10:24.694Z,237.67
2023-05-08T00:11:24.631Z,242.27
2023-05-08T00:12:24.653Z,241.38
2023-05-08T00:13:24.724Z,238.78
2023-05-08T00:14:24.695Z,240.14
2023-05-08T00:15:24.718Z,235.25
2023-05-08T00:16:24.789Z,237.17
2023-05-08T00:17:24.758Z,238.98
2023-05-08T00:18:24.756Z,239.75
2023-05-08T00:19:24.778Z,242.37
2023-05-08T00:20:24.811Z,238.94
2023-05-08T00:21:24.864Z,237.06
2023-05-08T00:22:24.840Z,241.24
2023-05-08T00:23:24.860Z,241.79
2023-05-08T00:24:24.908Z,243.41
2023-05-08T00:25:24.906Z,239.20
2023-05-08T00:26:24.944Z,238.64
2023-05-08T00:27:24.960Z,237.67
2023-05-08T00:28:24.976Z,240.21
2023-05-08T00:29:24.985Z,239.83
2023-05-08T00:30:25.012Z,238.22
2023-05-08T00:31:25.102Z,234.85
2023-05-08T00:32:25.186Z,240.25
2023-05-08T00:33:25.078Z,242.49
2023-05-08T00:34:25.094Z,238.51
2023-05-08T00:35:25.091Z,240.66
2023-05-08T00:36:25.114Z,240.16
2023-05-08T00:37:25.132Z,237.18
2023-05-08T00:38:25.126Z,238.36
2023-05-08T00:39:25.134Z,237.53
2023-05-08T00:40:25.153Z,232.86
2023-05-08T00:41:25.173Z,233.21
2023-05-08T00:42:25.192Z,236.80
2023-05-08T00:43:25.197Z,239.05
2023-05-08T00:44:25.194Z,241.58
2023-05-08T00:45:25.235Z,240.15
2023-05-08T00:46:25.193Z,241.55
2023-05-08T00:47:25.249Z,240.84
2023-05-08T00:48:25.214Z,239.13
2023-05-08T00:49:25.224Z,238.27
2023-05-08T00:50:25.221Z,240.71
2023-05-08T00:51:25.258Z,239.42
2023-05-08T00:52:25.234Z,240.30
2023-05-08T00:53:25.261Z,240.93
2023-05-08T00:54:25.238Z,240.74
2023-05-08T00:55:25.235Z,243.44
2023-05-08T00:56:25.236Z,242.22
2023-05-08T00:57:25.220Z,238.09
2023-05-08T00:58:25.220Z,240.04
2023-05-08T00:59:25.210Z,235.97
2023-05-08T01:00:25.204Z,237.55
2023-05-08T01:01:25.259Z,239.06
2023-05-08T01:02:25.319Z,240.08
2023-05-08T01:03:25.280Z,237.89
2023-05-08T01:04:25.200Z,242.18
2023-05-08T01:05:25.206Z,244.32
2023-05-08T01:06:25.199Z,244.80
2023-05-08T01:07:25.207Z,245.07
2023-05-08T01:08:25.198Z,242.96
2023-05-08T01:09:25.216Z,243.90
2023-05-08T01:10:25.178Z,245.43
2023-05-08T01:11:25.202Z,247.07
2023-05-08T01:12:25.197Z,249.12
2023-05-08T01:13:25.312Z,245.82
2023-05-08T01:14:25.215Z,246.71
2023-05-08T01:15:25.201Z,247.74
2023-05-08T01:16:25.177Z,245.47
2023-05-08T01:17:25.184Z,247.00
2023-05-08T01:18:25.189Z,246.62
2023-05-08T01:19:25.173Z,249.09
2023-05-08T01:20:25.165Z,248.98
2023-05-08T01:21:25.173Z,248.08
2023-05-08T01:22:25.182Z,247.66
2023-05-08T01:23:25.178Z,250.00
2023-05-08T01:24:25.185Z,247.97
2023-05-08T01:25:25.173Z,246.62
2023-05-08T01:26:25.183Z,244.03
2023-05-08T01:27:25.151Z,246.64
2023-05-08T01:28:25.204Z,243.09
2023-05-08T01:29:25.184Z,247.29
2023-05-08T01:30:25.152Z,247.61
2023-05-08T01:31:25.154Z,245.50
2023-05-08T01:32:25.183Z,246.78
2023-05-08T01:33:25.241Z,244.56
2023-05-08T01:34:25.181Z,245.80
2023-05-08T01:35:25.130Z,250.00
2023-05-08T01:36:25.128Z,249.51
2023-05-08T01:37:25.122Z,246.78
2023-05-08T01:38:25.115Z,247.20
2023-05-08T01:39:25.124Z,246.79
2023-05-08T01:40:25.102Z,248.93
2023-05-08T01:41:25.096Z,249.62
2023-05-08T01:42:25.117Z,248.87
2023-05-08T01:43:25.093Z,247.37
2023-05-08T01:44:25.107Z,246.77
2023-05-08T01:45:25.072Z,246.52
2023-05-08T01:46:25.105Z,244.66
2023-05-08T01:47:25.097Z,245.19
2023-05-08T01:48:25.073Z,245.78
2023-05-08T01:49:25.069Z,246.19
2023-05-08T01:50:25.058Z,245.53
2023-05-08T01:51:25.080Z,247.01
2023-05-08T01:52:25.037Z,247.16
2023-05-08T01:53:25.032Z,247.25
2023-05-08T01:54:25.052Z,244.95
2023-05-08T01:55:25.049Z,248.27
2023-05-08T01:56:25.045Z,246.14
2023-05-08T01:57:25.041Z,245.51
2023-05-08T01:58:25.018Z,248.31
2023-05-08T01:59:25.031Z,250.00
2023-05-08T02:00:25.015Z,249.59
2023-05-08T02:01:25.024Z,249.71
2023-05-08T02:02:25.059Z,250.00
2023-05-08T02:03:25.070Z,245.97
2023-05-08T02:04:25.088Z,245.89
2023-05-08T02:05:25.008Z,246.25
2023-05-08T02:06:25.020Z,247.13
2023-05-08T02:07:25.004Z,249.15
2023-05-08T02:08:24.994Z,249.42
2023-05-08T02:09:25.025Z,246.37
2023-05-08T02:10:24.974Z,249.19
2023-05-08T02:11:24.964Z,246.65
2023-05-08T02:12:24.962Z,249.38
2023-05-08T02:13:25.038Z,249.35
2023-05-08T02:14:24.989Z,248.70
2023-05-08T02:15:24.970Z,249.34
2023-05-08T02:16:24.987Z,248.44
2023-05-08T02:17:24.993Z,249.23
2023-05-08T02:18:24.979Z,248.91
2023-05-08T02:19:25.014Z,249.42
2023-05-08T02:20:25.003Z,248.73
2023-05-08T02:21:24.995Z,249.83
2023-05-08T02:22:24.994Z,248.22
2023-05-08T02:23:24.979Z,249.77
2023-05-08T02:24:24.996Z,248.58
2023-05-08T02:25:24.969Z,248.25
2023-05-08T02:26:24.990Z,247.51
2023-05-08T02:27:24.971Z,247.95
2023-05-08T02:28:24.989Z,249.61
2023-05-08T02:29:24.962Z,248.85
2023-05-08T02:30:24.981Z,248.83
2023-05-08T02:31:24.991Z,250.00
2023-05-08T02:32:25.002Z,248.86
2023-05-08T02:33:24.949Z,247.94
2023-05-08T02:34:24.959Z,248.66
2023-05-08T02:35:24.941Z,249.94
2023-05-08T02:36:24.970Z,249.84
2023-05-08T02:37:24.977Z,249.43
2023-05-08T02:38:24.946Z,249.65
2023-05-08T02:39:24.951Z,247.64
2023-05-08T02:40:24.959Z,249.27
2023-05-08T02:41:24.932Z,248.81
2023-05-08T02:42:24.938Z,249.91
2023-05-08T02:43:24.932Z,249.11
2023-05-08T02:44:24.926Z,250.00
2023-05-08T02:45:24.927Z,249.37
2023-05-08T02:46:24.954Z,247.65
2023-05-08T02:47:24.932Z,244.80
2023-05-08T02:48:24.943Z,246.25
2023-05-08T02:49:24.905Z,247.13
2023-05-08T02:50:24.894Z,246.45
2023-05-08T02:51:24.881Z,247.60
2023-05-08T02:52:24.906Z,248.08
2023-05-08T02:53:24.994Z,248.84
2023-05-08T02:54:24.870Z,247.37
2023-05-08T02:55:24.869Z,248.64
2023-05-08T02:56:24.886Z,247.09
2023-05-08T02:57:24.885Z,246.60
2023-05-08T02:58:24.898Z,248.49
2023-05-08T02:59:24.861Z,245.78
2023-05-08T03:00:24.857Z,246.03
2023-05-08T03:01:24.923Z,245.10
2023-05-08T03:02:24.975Z,244.67
2023-05-08T03:03:24.999Z,241.37
2023-05-08T03:04:24.831Z,241.62
2023-05-08T03:05:24.853Z,243.72
2023-05-08T03:06:24.843Z,245.53
2023-05-08T03:07:24.827Z,246.77
2023-05-08T03:08:24.819Z,244.38
2023-05-08T03:09:24.811Z,242.46
2023-05-08T03:10:24.797Z,241.45
2023-05-08T03:11:24.796Z,239.86
2023-05-08T03:12:24.808Z,237.89
2023-05-08T03:13:24.908Z,234.98
2023-05-08T03:14:24.792Z,237.89
2023-05-08T03:15:24.792Z,236.72
2023-05-08T03:16:24.842Z,238.55
2023-05-08T03:17:24.788Z,238.89
2023-05-08T03:18:24.757Z,237.30
2023-05-08T03:19:24.749Z,236.85
2023-05-08T03:20:24.768Z,238.15
2023-05-08T03:21:24.752Z,237.77
2023-05-08T03:22:24.750Z,235.45
2023-05-08T03:23:24.772Z,237.94
2023-05-08T03:24:24.748Z,235.77
2023-05-08T03:25:24.762Z,236.16
2023-05-08T03:26:24.743Z,233.58
2023-05-08T03:27:24.745Z,234.72
2023-05-08T03:28:24.730Z,233.42
2023-05-08T03:29:24.745Z,233.44
2023-05-08T03:30:24.721Z,234.80
2023-05-08T03:31:24.731Z,235.80
2023-05-08T03:32:24.713Z,235.29
2023-05-08T03:33:24.720Z,231.59
2023-05-08T03:34:24.696Z,230.64
2023-05-08T03:35:24.717Z,232.28
2023-05-08T03:36:24.682Z,232.81
2023-05-08T03:38:24.679Z,232.27
2023-05-08T03:39:24.687Z,230.55
2023-05-08T03:40:24.685Z,230.65
2023-05-08T03:41:24.700Z,231.29
2023-05-08T03:42:24.679Z,227.15
2023-05-08T03:43:24.655Z,229.93
2023-05-08T03:44:24.678Z,228.74
2023-05-08T03:45:24.681Z,228.95
2023-05-08T03:46:24.725Z,230.07
2023-05-08T03:47:24.732Z,229.31
2023-05-08T03:48:24.691Z,229.76
2023-05-08T03:49:24.691Z,229.43
2023-05-08T03:50:24.673Z,229.63
2023-05-08T03:51:24.661Z,227.17
2023-05-08T03:52:24.673Z,226.79
2023-05-08T03:53:24.684Z,225.71
2023-05-08T03:54:24.689Z,225.24
2023-05-08T03:55:24.682Z,222.48
2023-05-08T03:56:26.046Z,225.06
2023-05-08T03:57:24.699Z,226.85
2023-05-08T03:58:24.699Z,226.35
2023-05-08T03:59:24.702Z,225.06
2023-05-08T04:00:24.704Z,221.51
2023-05-08T04:01:24.685Z,223.93
2023-05-08T04:02:24.784Z,224.26
2023-05-08T04:03:24.750Z,226.09
2023-05-08T04:04:24.667Z,227.54
2023-05-08T04:05:24.703Z,228.56
2023-05-08T04:06:25.189Z,228.92
2023-05-08T04:07:24.668Z,228.00
2023-05-08T04:08:24.651Z,228.48
2023-05-08T04:09:24.663Z,226.52
2023-05-08T04:10:24.644Z,225.24
2023-05-08T04:11:24.657Z,226.32
2023-05-08T04:12:24.696Z,222.30
2023-05-08T04:13:24.911Z,224.04
2023-05-08T04:14:24.658Z,226.08
2023-05-08T04:15:24.648Z,224.64
2023-05-08T04:16:24.668Z,226.13
2023-05-08T04:17:24.675Z,224.01
2023-05-08T04:18:24.619Z,224.16
2023-05-08T04:19:24.896Z,222.34
2023-05-08T04:20:24.606Z,221.61
2023-05-08T04:21:24.611Z,220.85
2023-05-08T04:22:24.599Z,224.02
2023-05-08T04:23:24.615Z,224.56
2023-05-08T04:24:24.611Z,222.82
2023-05-08T04:25:24.595Z,223.38
2023-05-08T04:26:24.583Z,225.68
2023-05-08T04:27:24.590Z,224.13
2023-05-08T04:28:24.581Z,221.56
2023-05-08T04:29:24.580Z,220.84
2023-05-08T04:30:24.557Z,223.84
2023-05-08T04:31:24.582Z,225.77
2023-05-08T04:32:24.731Z,224.22
2023-05-08T04:33:24.574Z,223.71
2023-05-08T04:34:24.564Z,224.62
2023-05-08T04:35:24.559Z,223.35
2023-05-08T04:36:24.525Z,219.11
2023-05-08T04:37:24.549Z,219.29
2023-05-08T04:38:24.537Z,220.00
2023-05-08T04:39:24.523Z,219.54
2023-05-08T04:40:24.534Z,218.90
2023-05-08T04:41:24.553Z,218.23
2023-05-08T04:42:24.541Z,217.61
2023-05-08T04:43:24.500Z,220.27
2023-05-08T04:44:24.503Z,220.39
2023-05-08T04:45:24.506Z,221.43
2023-05-08T04:46:24.539Z,217.08
2023-05-08T04:47:24.550Z,221.41
2023-05-08T04:48:24.485Z,223.90
2023-05-08T04:49:24.495Z,223.64
2023-05-08T04:50:24.485Z,225.14
2023-05-08T04:51:24.462Z,224.30
2023-05-08T04:52:24.504Z,225.10
2023-05-08T04:53:24.480Z,222.00
2023-05-08T04:54:24.474Z,217.24
2023-05-08T04:55:24.477Z,217.21
2023-05-08T04:56:24.459Z,220.34
2023-05-08T04:57:24.450Z,221.33
2023-05-08T04:58:24.448Z,219.60
2023-05-08T04:59:24.447Z,219.46
2023-05-08T05:00:24.460Z,223.06
2023-05-08T05:01:24.482Z,223.78
2023-05-08T05:02:24.488Z,222.09
2023-05-08T05:03:24.548Z,217.12
2023-05-08T05:04:24.438Z,215.79
2023-05-08T05:05:24.457Z,217.36
2023-05-08T05:06:24.460Z,218.74
2023-05-08T05:07:24.439Z,217.99
2023-05-08T05:08:24.442Z,219.90
2023-05-08T05:09:24.454Z,220.11
2023-05-08T05:10:24.445Z,222.55
2023-05-08T05:11:24.446Z,223.67
2023-05-08T05:12:24.473Z,219.83
2023-05-08T05:13:24.561Z,218.47
2023-05-08T05:14:24.448Z,219.66
2023-05-08T05:15:24.424Z,220.77
2023-05-08T05:16:24.497Z,220.26
2023-05-08T05:17:24.470Z,221.42
2023-05-08T05:18:24.436Z,219.60
2023-05-08T05:19:24.414Z,221.13
2023-05-08T05:20:24.438Z,219.09
2023-05-08T05:21:24.427Z,223.45
2023-05-08T05:22:24.451Z,223.49
2023-05-08T05:23:24.430Z,222.65
2023-05-08T05:24:24.414Z,222.28
2023-05-08T05:25:24.412Z,221.00
2023-05-08T05:26:24.427Z,217.84
2023-05-08T05:27:24.422Z,214.39
2023-05-08T05:28:24.406Z,219.94
2023-05-08T05:29:24.395Z,216.79
2023-05-08T05:30:24.405Z,223.53
2023-05-08T05:31:24.445Z,232.16
2023-05-08T05:32:24.450Z,231.53
2023-05-08T05:33:24.408Z,241.22
2023-05-08T05:34:24.398Z,251.09
2023-05-08T05:35:25.741Z,250.00
2023-05-08T05:36:25.226Z,249.37
2023-05-08T05:37:24.438Z,250.00
2023-05-08T05:38:24.457Z,248.73
2023-05-08T05:39:24.469Z,250.00
2023-05-08T05:40:24.510Z,250.22
2023-05-08T05:41:24.544Z,250.00
2023-05-08T05:42:24.575Z,247.15
2023-05-08T05:43:24.585Z,247.74
2023-05-08T05:44:24.632Z,248.78
2023-05-08T05:45:24.673Z,250.00
2023-05-08T05:46:24.720Z,250.00
2023-05-08T05:47:24.872Z,250.00
2023-05-08T05:48:24.881Z,250.00
2023-05-08T05:49:24.901Z,244.50
2023-05-08T05:50:24.957Z,246.79
2023-05-08T05:51:24.986Z,249.11
2023-05-08T05:52:25.030Z,238.67
2023-05-08T05:53:25.068Z,248.02
2023-05-08T05:54:25.110Z,249.95
2023-05-08T05:55:25.162Z,249.99
2023-05-08T05:56:25.230Z,249.73
2023-05-08T05:57:25.293Z,250.00
2023-05-08T05:58:25.339Z,250.00
2023-05-08T05:59:25.374Z,249.95
2023-05-08T06:00:25.419Z,243.05
2023-05-08T06:01:25.498Z,243.08
2023-05-08T06:02:25.636Z,228.67
2023-05-08T06:03:25.687Z,223.44
2023-05-08T06:04:25.673Z,218.48
2023-05-08T06:05:25.637Z,212.67
2023-05-08T06:06:25.654Z,210.60
2023-05-08T06:07:25.675Z,199.76
2023-05-08T06:08:25.695Z,200.95
2023-05-08T06:09:25.722Z,202.40
2023-05-08T06:10:25.753Z,200.98
2023-05-08T06:11:25.793Z,197.22
2023-05-08T06:12:25.825Z,194.32
2023-05-08T06:13:25.986Z,190.91
2023-05-08T06:14:25.869Z,189.35
2023-05-08T06:15:25.892Z,198.12
2023-05-08T06:16:25.954Z,189.75
2023-05-08T06:17:25.991Z,185.98
2023-05-08T06:18:25.986Z,186.54
2023-05-08T06:19:25.983Z,187.09
2023-05-08T06:20:26.581Z,181.66
2023-05-08T06:21:26.002Z,182.12
2023-05-08T06:22:26.004Z,182.78
2023-05-08T06:23:25.984Z,186.97
2023-05-08T06:24:25.979Z,191.85
2023-05-08T06:25:25.994Z,199.59
2023-05-08T06:26:25.957Z,204.35
2023-05-08T06:27:25.946Z,214.67
2023-05-08T06:28:25.993Z,212.48
2023-05-08T06:29:25.976Z,225.80
2023-05-08T06:30:26.043Z,243.84
2023-05-08T06:31:26.056Z,236.93
2023-05-08T06:32:26.068Z,229.24
2023-05-08T06:33:26.935Z,238.95
2023-05-08T06:34:26.077Z,245.23
2023-05-08T06:35:26.312Z,244.66
2023-05-08T06:36:26.143Z,238.42
2023-05-08T06:37:26.198Z,235.11
2023-05-08T06:38:26.165Z,240.86
2023-05-08T06:39:26.208Z,243.33
2023-05-08T06:40:26.221Z,242.53
2023-05-08T06:41:26.250Z,247.03
2023-05-08T06:42:26.300Z,250.08
2023-05-08T06:43:26.366Z,247.82
2023-05-08T06:44:26.435Z,248.15
2023-05-08T06:45:26.482Z,250.00
2023-05-08T06:46:26.631Z,250.00
2023-05-08T06:47:26.625Z,249.32
2023-05-08T06:48:26.684Z,249.97
2023-05-08T06:49:26.708Z,250.24
2023-05-08T06:50:26.807Z,250.00
2023-05-08T06:51:26.811Z,249.08
2023-05-08T06:52:26.874Z,248.81
2023-05-08T06:53:26.919Z,248.18
2023-05-08T06:54:27.000Z,248.48
2023-05-08T06:55:27.263Z,247.39
2023-05-08T06:56:27.078Z,248.81
2023-05-08T06:57:27.167Z,249.00
2023-05-08T06:58:27.184Z,249.75
2023-05-08T06:59:27.232Z,248.04
2023-05-08T07:00:27.273Z,245.32
2023-05-08T07:01:27.357Z,244.21
2023-05-08T07:02:27.432Z,246.07
2023-05-08T07:03:27.424Z,248.15
2023-05-08T07:04:27.531Z,247.77
2023-05-08T07:05:27.511Z,250.00
2023-05-08T07:06:27.524Z,250.96
2023-05-08T07:07:27.570Z,273.71
2023-05-08T07:08:27.592Z,279.60
2023-05-08T07:09:27.629Z,272.13
2023-05-08T07:10:27.671Z,270.51
2023-05-08T07:11:27.679Z,229.75
2023-05-08T07:12:27.721Z,273.09
2023-05-08T07:13:27.875Z,293.36
2023-05-08T07:14:27.770Z,277.35
2023-05-08T07:15:27.950Z,264.88
2023-05-08T07:16:27.867Z,248.70
2023-05-08T07:17:27.940Z,229.61
2023-05-08T07:18:27.898Z,215.33
2023-05-08T07:19:27.931Z,207.60
2023-05-08T07:20:27.960Z,209.10
2023-05-08T07:21:27.986Z,204.35
2023-05-08T07:22:28.057Z,200.02
2023-05-08T07:23:28.002Z,195.81
2023-05-08T07:24:28.044Z,187.86
2023-05-08T07:25:28.366Z,187.68
2023-05-08T07:26:28.072Z,183.45
2023-05-08T07:27:28.127Z,185.49
2023-05-08T07:28:28.123Z,180.07
2023-05-08T07:29:28.154Z,160.05
2023-05-08T07:30:28.217Z,145.68
2023-05-08T07:31:28.284Z,134.16
2023-05-08T07:32:28.345Z,129.28
2023-05-08T07:33:28.340Z,134.72
2023-05-08T07:34:28.354Z,132.15
2023-05-08T07:35:28.373Z,131.59
2023-05-08T07:36:28.384Z,131.81
2023-05-08T07:37:28.385Z,130.67
2023-05-08T07:38:28.416Z,129.43
2023-05-08T07:39:28.383Z,128.71
2023-05-08T07:40:28.779Z,128.23
2023-05-08T07:41:28.409Z,123.69
2023-05-08T07:42:28.367Z,123.70
2023-05-08T07:43:28.777Z,125.47
2023-05-08T07:44:28.362Z,129.15
2023-05-08T07:45:28.375Z,134.20
2023-05-08T07:46:28.407Z,138.88
2023-05-08T07:47:28.420Z,140.70
2023-05-08T07:48:28.463Z,139.13
2023-05-08T07:49:28.461Z,140.10
2023-05-08T07:50:28.513Z,141.92
2023-05-08T07:51:28.539Z,145.72
2023-05-08T07:52:28.572Z,140.99
2023-05-08T07:53:28.561Z,142.67
2023-05-08T07:54:28.580Z,145.20
2023-05-08T07:55:28.595Z,148.75
2023-05-08T07:56:28.620Z,147.05
2023-05-08T07:57:28.617Z,146.06
2023-05-08T07:58:28.661Z,138.02
2023-05-08T07:59:28.659Z,139.56
2023-05-08T08:00:28.677Z,137.42
2023-05-08T08:01:28.658Z,141.40
2023-05-08T08:02:28.728Z,140.80
2023-05-08T08:03:28.816Z,143.82
2023-05-08T08:04:28.784Z,144.02
2023-05-08T08:05:28.791Z,145.91
2023-05-08T08:06:28.741Z,141.62
2023-05-08T08:07:28.783Z,144.22
2023-05-08T08:08:29.292Z,143.71
2023-05-08T08:09:28.859Z,146.25
2023-05-08T08:10:28.917Z,143.59
2023-05-08T08:11:28.894Z,144.62
2023-05-08T08:12:28.954Z,148.15
2023-05-08T08:13:29.440Z,146.93
2023-05-08T08:14:28.946Z,147.55
2023-05-08T08:15:29.017Z,157.40
2023-05-08T08:16:29.016Z,157.37
2023-05-08T08:17:29.307Z,163.58
2023-05-08T08:18:29.337Z,170.50
2023-05-08T08:19:29.083Z,178.67
2023-05-08T08:20:29.136Z,176.60
2023-05-08T08:21:29.205Z,166.25
2023-05-08T08:22:29.246Z,160.37
2023-05-08T08:23:29.306Z,154.22
2023-05-08T08:24:29.366Z,143.23
2023-05-08T08:25:29.795Z,138.84
2023-05-08T08:26:29.383Z,141.86
2023-05-08T08:27:29.428Z,136.84
2023-05-08T08:28:29.406Z,136.69
2023-05-08T08:29:29.484Z,136.83
2023-05-08T08:30:29.397Z,133.31
2023-05-08T08:31:29.473Z,131.15
2023-05-08T08:32:29.444Z,129.57
2023-05-08T08:33:29.452Z,131.06
2023-05-08T08:34:29.475Z,135.71
2023-05-08T08:35:29.530Z,142.15
2023-05-08T08:36:29.565Z,143.95
2023-05-08T08:37:29.598Z,147.92
2023-05-08T08:38:29.582Z,149.20
2023-05-08T08:39:29.583Z,153.49
2023-05-08T08:40:29.582Z,156.38
2023-05-08T08:41:29.584Z,156.71
2023-05-08T08:42:29.617Z,178.25
2023-05-08T08:43:29.819Z,179.86
2023-05-08T08:44:29.712Z,182.41
2023-05-08T08:45:29.814Z,184.52
2023-05-08T08:46:29.798Z,179.55
2023-05-08T08:47:29.959Z,179.37
2023-05-08T08:48:29.869Z,183.46
2023-05-08T08:49:29.956Z,187.00
2023-05-08T08:50:30.011Z,202.15
2023-05-08T08:51:30.067Z,192.35
2023-05-08T08:52:30.131Z,190.79
2023-05-08T08:53:30.190Z,189.36
2023-05-08T08:54:30.207Z,192.51
2023-05-08T08:55:30.269Z,202.59
2023-05-08T08:56:30.325Z,198.62
2023-05-08T08:57:30.354Z,191.86
2023-05-08T08:58:30.425Z,185.00
2023-05-08T08:59:30.478Z,150.33
2023-05-08T09:00:30.535Z,122.74
2023-05-08T09:01:30.695Z,105.05
2023-05-08T09:02:30.682Z,132.24
2023-05-08T09:03:30.779Z,139.50
2023-05-08T09:04:30.601Z,148.73
2023-05-08T09:05:30.806Z,158.44
2023-05-08T09:06:30.651Z,163.78
2023-05-08T09:07:30.697Z,162.42
2023-05-08T09:08:30.728Z,164.95
2023-05-08T09:09:30.755Z,166.60
2023-05-08T09:10:30.771Z,168.59
2023-05-08T09:11:30.852Z,169.79
2023-05-08T09:12:30.905Z,171.88
2023-05-08T09:13:31.169Z,169.77
2023-05-08T09:14:31.018Z,171.01
2023-05-08T09:15:31.068Z,168.60
2023-05-08T09:16:31.186Z,168.23
2023-05-08T09:17:31.278Z,170.82
2023-05-08T09:18:31.193Z,172.04
2023-05-08T09:19:31.259Z,172.61
2023-05-08T09:20:31.286Z,174.74
2023-05-08T09:21:31.347Z,175.91
2023-05-08T09:22:31.377Z,180.62
2023-05-08T09:23:31.832Z,181.32
2023-05-08T09:24:31.438Z,184.89
2023-05-08T09:25:31.494Z,183.64
2023-05-08T09:26:31.525Z,186.61
2023-05-08T09:27:31.558Z,189.00
2023-05-08T09:28:31.810Z,187.20
2023-05-08T09:29:31.631Z,184.07
2023-05-08T09:30:31.644Z,184.05
2023-05-08T09:31:32.703Z,185.19
2023-05-08T09:32:31.737Z,185.80
2023-05-08T09:33:31.923Z,185.49
2023-05-08T09:34:31.753Z,188.93
2023-05-08T09:35:31.768Z,188.74
2023-05-08T09:36:31.848Z,189.56
2023-05-08T09:37:31.828Z,192.65
2023-05-08T09:38:31.839Z,196.38
2023-05-08T09:39:31.865Z,194.74
2023-05-08T09:40:31.853Z,197.14
2023-05-08T09:41:31.889Z,199.73
2023-05-08T09:42:31.881Z,205.56
2023-05-08T09:43:31.918Z,206.99
2023-05-08T09:44:31.907Z,205.73
2023-05-08T09:45:32.226Z,204.34
2023-05-08T09:46:31.975Z,203.81
2023-05-08T09:47:32.038Z,203.24
2023-05-08T09:48:31.945Z,201.88
2023-05-08T09:49:32.036Z,201.21
2023-05-08T09:50:31.979Z,199.56
2023-05-08T09:51:31.970Z,200.91
2023-05-08T09:52:31.986Z,200.34
2023-05-08T09:53:32.000Z,200.62
2023-05-08T09:54:32.005Z,200.37
2023-05-08T09:55:31.996Z,200.36
2023-05-08T09:56:32.021Z,202.02
2023-05-08T09:57:31.996Z,203.51
2023-05-08T09:58:32.007Z,204.73
2023-05-08T09:59:34.108Z,206.92
2023-05-08T10:00:32.021Z,207.65
2023-05-08T10:01:32.085Z,209.83
2023-05-08T10:02:32.042Z,210.83
2023-05-08T10:03:32.398Z,209.22
2023-05-08T10:04:32.053Z,191.18
2023-05-08T10:05:32.493Z,189.19
2023-05-08T10:06:32.361Z,184.50
2023-05-08T10:07:32.091Z,191.75
2023-05-08T10:08:32.096Z,160.98
2023-05-08T10:09:46.861Z,141.00
2023-05-08T10:10:33.124Z,141.03
2023-05-08T10:11:32.126Z,141.64
2023-05-08T10:12:32.124Z,143.82
2023-05-08T10:13:32.137Z,146.94
2023-05-08T10:14:32.140Z,156.65
2023-05-08T10:15:32.075Z,159.80
2023-05-08T10:16:32.173Z,161.62
2023-05-08T10:17:32.163Z,165.22
2023-05-08T10:18:32.076Z,171.31
2023-05-08T10:19:32.053Z,172.03
2023-05-08T10:20:32.053Z,177.88
2023-05-08T10:21:32.423Z,177.83
2023-05-08T10:22:32.037Z,174.33
2023-05-08T10:23:32.025Z,172.42
2023-05-08T10:24:32.039Z,171.02
2023-05-08T10:25:32.007Z,169.54
2023-05-08T10:26:32.037Z,172.46
2023-05-08T10:27:32.031Z,167.97
2023-05-08T10:28:32.337Z,154.54
2023-05-08T10:29:32.046Z,146.30
2023-05-08T10:30:32.057Z,147.82
2023-05-08T10:31:32.133Z,155.79
2023-05-08T10:32:32.149Z,162.24
2023-05-08T10:33:32.481Z,166.68
2023-05-08T10:34:32.137Z,167.59
2023-05-08T10:35:32.163Z,164.92
2023-05-08T10:36:32.168Z,165.65
2023-05-08T10:37:32.254Z,156.16
2023-05-08T10:38:32.207Z,142.59
2023-05-08T10:39:32.184Z,130.98
2023-05-08T10:40:32.197Z,125.81
2023-05-08T10:41:32.227Z,109.07
2023-05-08T10:42:32.262Z,92.46
2023-05-08T10:43:32.263Z,94.55
2023-05-08T10:44:32.312Z,87.15
2023-05-08T10:45:32.337Z,90.06
2023-05-08T10:46:32.399Z,69.49
2023-05-08T10:47:32.427Z,64.65
2023-05-08T10:48:32.441Z,63.43
2023-05-08T10:49:32.501Z,52.86
2023-05-08T10:50:32.557Z,48.25
2023-05-08T10:51:32.612Z,24.09
2023-05-08T10:52:32.666Z,18.15
2023-05-08T10:53:32.727Z,37.97
2023-05-08T10:54:32.777Z,47.42
2023-05-08T10:55:32.823Z,47.34
2023-05-08T10:56:32.904Z,48.38
2023-05-08T10:57:32.955Z,51.09
2023-05-08T10:58:33.021Z,40.02
2023-05-08T10:59:33.050Z,22.02
2023-05-08T11:00:33.083Z,28.50
2023-05-08T11:01:33.142Z,45.87
2023-05-08T11:02:33.282Z,52.31
2023-05-08T11:03:33.514Z,64.78
2023-05-08T11:04:33.426Z,68.12
2023-05-08T11:05:33.276Z,71.12
2023-05-08T11:06:33.305Z,77.37
2023-05-08T11:07:33.367Z,73.69
2023-05-08T11:08:33.451Z,80.21
2023-05-08T11:09:33.517Z,84.63
2023-05-08T11:10:33.597Z,76.32
2023-05-08T11:11:33.620Z,97.66
2023-05-08T11:12:33.646Z,81.58
2023-05-08T11:13:33.703Z,85.65
2023-05-08T11:14:33.773Z,88.75
2023-05-08T11:15:33.808Z,78.58
2023-05-08T11:16:34.432Z,73.91
2023-05-08T11:17:33.969Z,59.22
2023-05-08T11:19:34.010Z,28.86
2023-05-08T11:20:33.965Z,21.70
2023-05-08T11:21:34.374Z,18.70
2023-05-08T11:22:33.949Z,11.99
2023-05-08T11:23:33.941Z,13.71
2023-05-08T11:24:33.925Z,25.28
2023-05-08T11:25:33.913Z,31.69
2023-05-08T11:26:33.917Z,34.67
2023-05-08T11:27:33.903Z,33.98
2023-05-08T11:28:34.609Z,41.81
2023-05-08T11:29:33.905Z,30.74
2023-05-08T11:30:33.902Z,25.90
2023-05-08T11:31:33.887Z,37.83
2023-05-08T11:32:33.867Z,44.44
2023-05-08T11:33:33.872Z,43.71
2023-05-08T11:34:33.863Z,41.44
2023-05-08T11:35:33.845Z,45.46
2023-05-08T11:36:33.917Z,47.77
2023-05-08T11:37:33.981Z,44.10
2023-05-08T11:38:34.069Z,48.86
2023-05-08T11:39:34.120Z,47.52
2023-05-08T11:40:34.170Z,40.76
2023-05-08T11:41:34.206Z,41.41
2023-05-08T11:42:34.297Z,41.26
2023-05-08T11:43:34.365Z,39.58
2023-05-08T11:44:34.377Z,41.01
2023-05-08T11:45:34.429Z,35.27
2023-05-08T11:46:34.568Z,44.25
2023-05-08T11:47:34.574Z,49.37
2023-05-08T11:48:34.621Z,56.66
2023-05-08T11:49:34.643Z,59.56
2023-05-08T11:50:34.688Z,57.05
2023-05-08T11:51:34.751Z,55.62
2023-05-08T11:52:34.798Z,50.71
2023-05-08T11:53:34.854Z,49.83
2023-05-08T11:54:34.929Z,44.58
2023-05-08T11:55:34.958Z,46.51
2023-05-08T11:56:35.003Z,48.78
2023-05-08T11:57:35.034Z,47.04
2023-05-08T11:58:35.083Z,43.87
2023-05-08T11:59:35.144Z,44.89
2023-05-08T12:00:35.249Z,50.45
2023-05-08T12:01:35.235Z,41.08
2023-05-08T12:02:35.350Z,49.88
2023-05-08T12:03:35.556Z,46.30
2023-05-08T12:04:35.460Z,46.62
2023-05-08T12:05:35.435Z,46.42
2023-05-08T12:06:35.514Z,49.30
2023-05-08T12:07:35.541Z,44.00
2023-05-08T12:08:35.606Z,39.86
2023-05-08T12:09:35.642Z,30.71
2023-05-08T12:10:35.701Z,27.93
2023-05-08T12:11:35.735Z,18.30
2023-05-08T12:12:35.802Z,18.59
2023-05-08T12:13:35.938Z,17.47
2023-05-08T12:14:35.901Z,25.00
2023-05-08T12:15:35.939Z,27.75
2023-05-08T12:16:35.981Z,28.59
2023-05-08T12:17:36.061Z,38.50
2023-05-08T12:18:37.424Z,47.13
2023-05-08T12:19:36.070Z,61.55
2023-05-08T12:20:36.137Z,58.48
2023-05-08T12:21:36.152Z,66.57
2023-05-08T12:22:36.201Z,74.29
2023-05-08T12:23:36.250Z,75.69
2023-05-08T12:24:36.302Z,76.90
2023-05-08T12:25:36.363Z,94.23
2023-05-08T12:26:36.398Z,101.77
2023-05-08T12:27:36.455Z,105.74
2023-05-08T12:28:36.533Z,107.45
2023-05-08T12:29:36.569Z,106.63
2023-05-08T12:30:36.595Z,104.69
2023-05-08T12:31:36.693Z,107.90
2023-05-08T12:32:36.742Z,110.15
2023-05-08T12:33:36.708Z,113.48